createdAt,value
2022-08-28T00:00:37.690Z,1.88
2022-08-28T00:03:05.772Z,1.88
2022-08-28T00:05:33.840Z,1.58
2022-08-28T00:08:00.910Z,1.55
2022-08-28T00:10:29.548Z,1.48
2022-08-28T00:12:58.043Z,1.52
2022-08-28T00:15:34.752Z,2.00
2022-08-28T00:18:03.556Z,2.10
2022-08-28T00:20:31.632Z,2.10
2022-08-28T00:23:00.253Z,1.92
2022-08-28T00:25:29.544Z,1.65
2022-08-28T00:27:59.671Z,1.55
2022-08-28T00:30:29.821Z,1.70
2022-08-28T00:33:00.818Z,1.60
2022-08-28T00:35:27.779Z,1.63
2022-08-28T00:37:54.955Z,1.75
2022-08-28T00:40:28.980Z,1.88
2022-08-28T00:43:03.991Z,2.03
2022-08-28T00:45:37.319Z,1.83
2022-08-28T00:48:06.507Z,2.17
2022-08-28T00:50:56.750Z,2.17
2022-08-28T00:53:30.065Z,2.15
2022-08-28T00:56:06.963Z,1.70
2022-08-28T00:58:43.135Z,1.55
2022-08-28T01:01:10.904Z,1.73
2022-08-28T01:03:37.652Z,1.90
2022-08-28T01:06:05.548Z,1.95
2022-08-28T01:08:33.878Z,1.60
2022-08-28T01:11:03.913Z,2.03
2022-08-28T01:13:32.428Z,2.00
2022-08-28T01:16:00.851Z,2.00
2022-08-28T01:18:27.995Z,1.80
2022-08-28T01:21:05.456Z,1.75
2022-08-28T01:23:51.540Z,2.13
2022-08-28T01:26:18.344Z,1.90
2022-08-28T01:28:45.440Z,2.05
2022-08-28T01:31:14.985Z,1.77
2022-08-28T01:33:42.885Z,1.63
2022-08-28T01:36:12.036Z,1.50
2022-08-28T01:38:41.363Z,2.28
2022-08-28T01:41:08.617Z,1.88
2022-08-28T01:43:35.309Z,1.90
2022-08-28T01:46:04.797Z,2.88
2022-08-28T01:48:35.817Z,1.63
2022-08-28T01:51:04.613Z,2.20
2022-08-28T01:53:33.079Z,2.15
2022-08-28T01:56:02.918Z,2.13
2022-08-28T01:58:36.034Z,1.60
2022-08-28T02:01:10.900Z,1.98
2022-08-28T02:03:38.525Z,1.88
2022-08-28T02:06:05.886Z,2.25
2022-08-28T02:08:32.672Z,2.22
2022-08-28T02:10:59.262Z,1.90
2022-08-28T02:13:26.042Z,2.22
2022-08-28T02:15:52.877Z,1.88
2022-08-28T02:18:19.914Z,2.28
2022-08-28T02:20:46.541Z,1.92
2022-08-28T02:23:13.737Z,1.58
2022-08-28T02:25:40.719Z,1.55
2022-08-28T02:28:08.990Z,2.20
2022-08-28T02:30:36.440Z,2.08
2022-08-28T02:33:03.496Z,2.42
2022-08-28T02:35:31.090Z,2.00
2022-08-28T02:37:58.540Z,2.35
2022-08-28T02:40:27.725Z,1.65
2022-08-28T02:42:54.551Z,2.35
2022-08-28T02:45:21.544Z,2.33
2022-08-28T02:47:51.897Z,1.58
2022-08-28T02:50:19.778Z,2.30
2022-08-28T02:52:46.829Z,2.50
2022-08-28T02:55:15.944Z,2.47
2022-08-28T02:57:42.894Z,2.03
2022-08-28T03:00:13.189Z,1.92
2022-08-28T03:02:41.594Z,2.30
2022-08-28T03:05:09.734Z,1.60
2022-08-28T03:07:36.383Z,1.67
2022-08-28T03:10:04.650Z,2.45
2022-08-28T03:12:31.853Z,2.10
2022-08-28T03:14:58.739Z,2.00
2022-08-28T03:17:25.810Z,2.08
2022-08-28T03:19:52.596Z,2.10
2022-08-28T03:22:43.486Z,2.47
2022-08-28T03:25:11.840Z,2.30
2022-08-28T03:27:38.704Z,1.52
2022-08-28T03:30:07.799Z,1.95
2022-08-28T03:32:34.648Z,2.25
2022-08-28T03:35:02.390Z,2.17
2022-08-28T03:37:29.208Z,2.00
2022-08-28T03:39:55.992Z,2.08
2022-08-28T03:42:23.321Z,2.03
2022-08-28T03:44:50.055Z,1.85
2022-08-28T03:47:17.269Z,2.22
2022-08-28T03:49:45.355Z,2.63
2022-08-28T03:52:12.510Z,1.80
2022-08-28T03:54:39.420Z,2.13
2022-08-28T03:57:07.582Z,1.77
2022-08-28T03:59:35.619Z,1.85
2022-08-28T04:02:02.366Z,1.67
2022-08-28T04:04:29.019Z,2.17
2022-08-28T04:06:55.789Z,2.25
2022-08-28T04:09:22.392Z,1.80
2022-08-28T04:11:49.021Z,2.72
2022-08-28T04:14:15.681Z,2.13
2022-08-28T04:16:42.364Z,2.28
2022-08-28T04:19:09.238Z,2.13
2022-08-28T04:21:35.934Z,2.45
2022-08-28T04:24:04.964Z,2.30
2022-08-28T04:26:36.600Z,2.40
2022-08-28T04:29:05.136Z,2.20
2022-08-28T04:31:33.085Z,2.60
2022-08-28T04:34:01.975Z,1.95
2022-08-28T04:36:29.210Z,1.98
2022-08-28T04:38:58.462Z,1.70
2022-08-28T04:41:26.208Z,2.08
2022-08-28T04:43:53.830Z,2.28
2022-08-28T04:46:20.590Z,2.03
2022-08-28T04:48:47.230Z,2.55
2022-08-28T04:51:15.131Z,1.85
2022-08-28T04:53:43.250Z,1.80
2022-08-28T04:56:13.476Z,1.63
2022-08-28T04:58:41.906Z,1.40
2022-08-28T05:01:12.704Z,1.88
2022-08-28T05:03:39.976Z,2.83
2022-08-28T05:06:07.102Z,2.33
2022-08-28T05:08:34.175Z,2.35
2022-08-28T05:11:11.198Z,2.08
2022-08-28T05:13:38.074Z,2.17
2022-08-28T05:16:04.876Z,2.20
2022-08-28T05:18:31.860Z,1.75
2022-08-28T05:20:58.807Z,2.30
2022-08-28T05:23:26.194Z,2.03
2022-08-28T05:25:52.825Z,2.03
2022-08-28T05:28:19.789Z,2.08
2022-08-28T05:30:46.453Z,2.00
2022-08-28T05:33:15.116Z,2.20
2022-08-28T05:35:44.501Z,2.03
2022-08-28T05:38:13.418Z,2.03
2022-08-28T05:40:44.791Z,2.75
2022-08-28T05:43:13.669Z,2.53
2022-08-28T05:45:40.865Z,1.70
2022-08-28T05:48:07.939Z,2.00
2022-08-28T05:50:37.985Z,2.03
2022-08-28T05:53:04.744Z,2.25
2022-08-28T05:55:31.491Z,1.80
2022-08-28T05:58:18.095Z,2.53
2022-08-28T06:00:44.801Z,2.38
2022-08-28T06:03:11.441Z,1.58
2022-08-28T06:05:38.442Z,2.13
2022-08-28T06:08:05.058Z,2.35
2022-08-28T06:10:31.812Z,2.08
2022-08-28T06:12:58.990Z,2.10
2022-08-28T06:15:26.855Z,1.95
2022-08-28T06:17:53.639Z,1.77
2022-08-28T06:20:20.808Z,1.48
2022-08-28T06:22:50.830Z,1.88
2022-08-28T06:25:17.396Z,1.77
2022-08-28T06:27:44.040Z,2.17
2022-08-28T06:30:11.117Z,1.65
2022-08-28T06:32:37.731Z,1.60
2022-08-28T06:35:04.957Z,1.77
2022-08-28T06:37:31.518Z,2.15
2022-08-28T06:39:58.387Z,1.95
2022-08-28T06:42:25.181Z,1.92
2022-08-28T06:44:51.821Z,1.73
2022-08-28T06:47:18.426Z,1.23
2022-08-28T06:49:45.043Z,1.50
2022-08-28T06:52:11.604Z,1.50
2022-08-28T06:54:38.367Z,1.73
2022-08-28T06:57:07.073Z,1.33
2022-08-28T06:59:33.651Z,1.92
2022-08-28T07:02:00.382Z,1.45
2022-08-28T07:04:27.851Z,1.52
2022-08-28T07:06:55.053Z,1.80
2022-08-28T07:09:22.700Z,1.40
2022-08-28T07:11:49.417Z,1.42
2022-08-28T07:14:16.629Z,1.50
2022-08-28T07:16:44.338Z,1.60
2022-08-28T07:19:12.793Z,1.42
2022-08-28T07:21:43.529Z,1.67
2022-08-28T07:24:12.789Z,1.15
2022-08-28T07:26:41.079Z,1.52
2022-08-28T07:29:11.072Z,1.65
2022-08-28T07:31:44.180Z,1.38
2022-08-28T07:34:12.173Z,1.70
2022-08-28T07:36:39.729Z,1.17
2022-08-28T07:39:07.291Z,1.60
2022-08-28T07:41:37.353Z,0.98
2022-08-28T07:44:22.737Z,1.20
2022-08-28T07:46:53.746Z,1.20
2022-08-28T07:49:20.392Z,1.50
2022-08-28T07:51:47.244Z,1.00
2022-08-28T07:54:17.664Z,1.10
2022-08-28T07:56:46.208Z,1.15
2022-08-28T07:59:17.026Z,1.10
2022-08-28T08:01:48.096Z,1.23
2022-08-28T08:04:16.752Z,1.00
2022-08-28T08:06:44.474Z,1.50
2022-08-28T08:09:14.566Z,1.23
2022-08-28T08:11:42.376Z,0.85
2022-08-28T08:14:09.893Z,0.85
2022-08-28T08:16:39.651Z,1.55
2022-08-28T08:19:09.877Z,1.38
2022-08-28T08:21:37.849Z,0.98
2022-08-28T08:24:05.530Z,1.60
2022-08-28T08:26:33.185Z,1.33
2022-08-28T08:29:00.115Z,1.33
2022-08-28T08:31:29.871Z,1.58
2022-08-28T08:33:59.018Z,1.40
2022-08-28T08:36:27.239Z,1.10
2022-08-28T08:38:59.480Z,0.95
2022-08-28T08:41:49.860Z,1.20
2022-08-28T08:44:33.717Z,1.00
2022-08-28T08:47:29.052Z,0.90
2022-08-28T08:50:02.240Z,1.35
2022-08-28T08:52:44.003Z,1.70
2022-08-28T08:55:31.935Z,0.90
2022-08-28T08:58:05.261Z,1.08
2022-08-28T09:00:39.605Z,1.30
2022-08-28T09:03:15.029Z,1.20
2022-08-28T09:08:29.946Z,1.02
2022-08-28T09:11:04.123Z,1.05
2022-08-28T09:13:54.215Z,0.90
2022-08-28T09:16:29.991Z,1.33
2022-08-28T09:18:58.989Z,1.30
2022-08-28T09:21:30.014Z,0.80
2022-08-28T09:24:05.690Z,1.10
2022-08-28T09:26:39.326Z,1.10
2022-08-28T09:29:16.213Z,0.82
2022-08-28T09:31:44.238Z,1.00
2022-08-28T09:34:23.654Z,0.88
2022-08-28T09:36:51.873Z,1.23
2022-08-28T09:39:19.930Z,1.08
2022-08-28T09:42:20.498Z,1.00
2022-08-28T09:45:25.949Z,0.90
2022-08-28T09:48:00.735Z,1.17
2022-08-28T09:50:41.542Z,0.77
2022-08-28T09:53:14.121Z,0.95
2022-08-28T09:55:57.810Z,1.25
2022-08-28T09:58:40.297Z,0.82
2022-08-28T10:01:29.476Z,1.08
2022-08-28T10:04:25.679Z,1.20
2022-08-28T10:09:24.147Z,1.55
2022-08-28T10:12:02.673Z,0.60
2022-08-28T10:14:50.185Z,1.00
2022-08-28T10:17:29.035Z,0.98
2022-08-28T10:20:21.952Z,1.60
2022-08-28T10:23:05.096Z,1.20
2022-08-28T10:25:49.562Z,0.93
2022-08-28T10:28:35.557Z,1.08
2022-08-28T10:31:26.734Z,0.75
2022-08-28T10:34:07.951Z,1.05
2022-08-28T10:36:35.682Z,1.00
2022-08-28T10:39:53.177Z,1.02
2022-08-28T10:43:03.571Z,1.23
2022-08-28T10:45:33.200Z,0.90
2022-08-28T10:48:06.887Z,0.80
2022-08-28T10:50:52.043Z,0.88
2022-08-28T10:53:35.112Z,0.75
2022-08-28T10:56:08.575Z,0.80
2022-08-28T10:58:40.600Z,0.85
2022-08-28T11:01:14.518Z,0.70
2022-08-28T11:03:51.581Z,0.80
2022-08-28T11:06:46.102Z,0.80
2022-08-28T11:09:29.069Z,0.93
2022-08-28T11:12:02.424Z,0.75
2022-08-28T11:14:35.572Z,0.93
2022-08-28T11:17:27.631Z,1.13
2022-08-28T11:20:25.359Z,0.77
2022-08-28T11:23:22.606Z,0.57
2022-08-28T11:25:55.117Z,0.90
2022-08-28T11:28:25.576Z,0.70
2022-08-28T11:30:57.988Z,0.85
2022-08-28T11:33:37.078Z,0.90
2022-08-28T11:36:09.640Z,0.73
2022-08-28T11:38:42.519Z,0.93
2022-08-28T11:41:12.328Z,1.15
2022-08-28T11:43:41.906Z,0.70
2022-08-28T11:46:12.794Z,1.00
2022-08-28T11:48:41.850Z,0.80
2022-08-28T11:51:17.591Z,0.77
2022-08-28T11:54:18.210Z,0.98
2022-08-28T11:57:02.760Z,0.60
2022-08-28T12:00:00.024Z,1.25
2022-08-28T12:02:32.745Z,0.80
2022-08-28T12:04:59.620Z,0.75
2022-08-28T12:07:38.632Z,1.00
2022-08-28T12:10:20.691Z,0.77
2022-08-28T12:12:47.378Z,0.70
2022-08-28T12:15:38.364Z,0.60
2022-08-28T12:18:11.046Z,1.25
2022-08-28T12:20:59.722Z,0.70
2022-08-28T12:23:43.053Z,0.90
2022-08-28T12:26:22.517Z,0.95
2022-08-28T12:29:15.367Z,0.68
2022-08-28T12:32:11.272Z,0.52
2022-08-28T12:34:43.957Z,0.93
2022-08-28T12:37:29.289Z,0.60
2022-08-28T12:40:02.611Z,0.73
2022-08-28T12:42:32.487Z,0.60
2022-08-28T12:45:06.745Z,0.85
2022-08-28T12:47:35.660Z,1.10
2022-08-28T12:50:25.286Z,0.63
2022-08-28T12:52:55.786Z,0.85
2022-08-28T12:55:24.584Z,1.35
2022-08-28T12:57:52.174Z,0.77
2022-08-28T13:00:23.051Z,0.38
2022-08-28T13:02:53.311Z,0.73
2022-08-28T13:05:30.449Z,0.60
2022-08-28T13:08:00.233Z,0.80
2022-08-28T13:10:31.209Z,0.40
2022-08-28T13:13:24.711Z,0.50
2022-08-28T13:16:01.326Z,0.88
2022-08-28T13:18:49.675Z,0.70
2022-08-28T13:21:32.801Z,1.00
2022-08-28T13:24:35.345Z,0.93
2022-08-28T13:27:14.350Z,0.65
2022-08-28T13:30:19.898Z,0.60
2022-08-28T13:33:02.333Z,0.93
2022-08-28T13:35:33.922Z,1.20
2022-08-28T13:38:08.352Z,0.70
2022-08-28T13:41:03.910Z,0.80
2022-08-28T13:43:44.344Z,0.40
2022-08-28T13:46:11.009Z,1.30
2022-08-28T13:48:37.678Z,0.73
2022-08-28T13:51:11.592Z,0.95
2022-08-28T13:53:41.229Z,0.65
2022-08-28T13:56:07.924Z,0.68
2022-08-28T13:58:34.857Z,0.77
2022-08-28T14:01:02.107Z,0.80
2022-08-28T14:03:38.854Z,0.60
2022-08-28T14:06:11.317Z,0.75
2022-08-28T14:08:39.742Z,1.08
2022-08-28T14:11:07.270Z,0.93
2022-08-28T14:13:34.126Z,0.50
2022-08-28T14:16:05.286Z,0.47
2022-08-28T14:18:32.302Z,0.50
2022-08-28T14:20:59.101Z,0.60
2022-08-28T14:23:25.819Z,0.50
2022-08-28T14:25:52.411Z,1.05
2022-08-28T14:28:19.218Z,0.75
2022-08-28T14:30:51.417Z,0.77
2022-08-28T14:33:20.559Z,0.50
2022-08-28T14:35:49.017Z,0.55
2022-08-28T14:38:16.708Z,0.70
2022-08-28T14:40:44.370Z,0.75
2022-08-28T14:43:13.437Z,0.55
2022-08-28T14:45:47.885Z,0.57
2022-08-28T14:48:17.493Z,0.70
2022-08-28T14:50:46.960Z,0.60
2022-08-28T14:53:14.492Z,0.80
2022-08-28T14:55:43.987Z,0.80
2022-08-28T14:58:11.042Z,0.60
2022-08-28T15:00:39.680Z,0.47
2022-08-28T15:03:06.700Z,0.80
2022-08-28T15:05:33.996Z,0.70
2022-08-28T15:08:00.760Z,0.73
2022-08-28T15:10:27.346Z,0.70
2022-08-28T15:12:54.187Z,0.47
2022-08-28T15:15:22.418Z,0.95
2022-08-28T15:17:49.045Z,0.50
2022-08-28T15:20:15.780Z,0.70
2022-08-28T15:22:42.896Z,1.20
2022-08-28T15:25:09.664Z,0.68
2022-08-28T15:27:36.588Z,0.60
2022-08-28T15:30:04.820Z,0.68
2022-08-28T15:32:32.206Z,1.02
2022-08-28T15:34:58.820Z,0.52
2022-08-28T15:37:25.675Z,1.15
2022-08-28T15:40:11.125Z,1.23
2022-08-28T15:42:37.884Z,0.70
2022-08-28T15:45:04.900Z,1.02
2022-08-28T15:47:31.667Z,0.90
2022-08-28T15:49:58.275Z,0.77
2022-08-28T15:52:25.070Z,0.52
2022-08-28T15:54:52.692Z,0.60
2022-08-28T15:57:19.611Z,1.10
2022-08-28T15:59:49.970Z,0.90
2022-08-28T16:02:20.707Z,0.90
2022-08-28T16:04:47.644Z,0.75
2022-08-28T16:07:14.328Z,1.10
2022-08-28T16:09:41.145Z,0.70
2022-08-28T16:12:07.826Z,0.90
2022-08-28T16:14:34.548Z,1.05
2022-08-28T16:17:05.944Z,0.70
2022-08-28T16:19:41.639Z,0.60
2022-08-28T16:22:10.047Z,0.82
2022-08-28T16:24:37.626Z,0.75
2022-08-28T16:27:06.188Z,0.68
2022-08-28T16:29:35.341Z,0.70
2022-08-28T16:32:04.160Z,0.63
2022-08-28T16:34:32.680Z,1.00
2022-08-28T16:37:00.037Z,1.15
2022-08-28T16:39:27.099Z,0.73
2022-08-28T16:41:53.768Z,0.65
2022-08-28T16:44:22.804Z,0.63
2022-08-28T16:46:50.175Z,1.05
2022-08-28T16:49:16.927Z,0.98
2022-08-28T16:51:43.571Z,0.98
2022-08-28T16:54:10.747Z,1.00
2022-08-28T16:56:37.523Z,1.38
2022-08-28T16:59:04.404Z,0.60
2022-08-28T17:01:37.594Z,0.75
2022-08-28T17:04:07.607Z,0.93
2022-08-28T17:06:35.406Z,0.77
2022-08-28T17:09:02.055Z,0.77
2022-08-28T17:11:29.267Z,0.80
2022-08-28T17:13:57.047Z,0.77
2022-08-28T17:16:25.485Z,1.10
2022-08-28T17:18:53.041Z,0.75
2022-08-28T17:21:40.736Z,0.90
2022-08-28T17:24:09.592Z,0.93
2022-08-28T17:26:36.312Z,0.75
2022-08-28T17:29:03.693Z,0.95
2022-08-28T17:31:30.366Z,0.77
2022-08-28T17:33:57.565Z,0.70
2022-08-28T17:36:33.294Z,0.93
2022-08-28T17:39:08.219Z,0.60
2022-08-28T17:41:35.487Z,0.90
2022-08-28T17:44:02.727Z,1.15
2022-08-28T17:46:32.785Z,1.00
2022-08-28T17:49:03.135Z,1.15
2022-08-28T17:51:41.985Z,1.20
2022-08-28T17:54:17.673Z,0.75
2022-08-28T17:56:44.851Z,1.17
2022-08-28T17:59:12.128Z,1.00
2022-08-28T18:01:39.795Z,0.80
2022-08-28T18:04:06.475Z,0.77
2022-08-28T18:06:33.517Z,0.80
2022-08-28T18:09:00.555Z,0.90
2022-08-28T18:11:28.436Z,1.20
2022-08-28T18:13:55.178Z,0.70
2022-08-28T18:16:22.076Z,0.63
2022-08-28T18:18:48.898Z,1.10
2022-08-28T18:21:15.616Z,0.80
2022-08-28T18:23:42.321Z,1.00
2022-08-28T18:26:09.144Z,0.73
2022-08-28T18:28:36.343Z,0.90
2022-08-28T18:31:06.084Z,0.80
2022-08-28T18:33:33.740Z,0.82
2022-08-28T18:36:00.600Z,0.70
2022-08-28T18:38:28.453Z,0.90
2022-08-28T18:40:56.191Z,1.20
2022-08-28T18:43:23.942Z,2.92
2022-08-28T18:45:51.290Z,0.85
2022-08-28T18:48:19.168Z,1.05
2022-08-28T18:50:47.363Z,1.00
2022-08-28T18:53:15.728Z,0.80
2022-08-28T18:55:42.413Z,0.93
2022-08-28T18:58:11.111Z,1.20
2022-08-28T19:00:42.611Z,0.93
2022-08-28T19:03:09.711Z,1.17
2022-08-28T19:05:37.805Z,1.23
2022-08-28T19:08:05.436Z,1.02
2022-08-28T19:10:34.641Z,0.82
2022-08-28T19:13:02.591Z,1.40
2022-08-28T19:15:31.833Z,1.25
2022-08-28T19:18:00.342Z,1.27
2022-08-28T19:20:28.013Z,0.95
2022-08-28T19:22:56.189Z,0.70
2022-08-28T19:25:28.399Z,0.85
2022-08-28T19:28:01.267Z,1.00
2022-08-28T19:30:32.704Z,1.10
2022-08-28T19:33:01.045Z,1.02
2022-08-28T19:35:28.131Z,1.85
2022-08-28T19:37:55.563Z,1.17
2022-08-28T19:40:23.039Z,0.70
2022-08-28T19:42:50.150Z,1.20
2022-08-28T19:45:17.816Z,0.70
2022-08-28T19:47:45.316Z,0.73
2022-08-28T19:50:13.899Z,1.02
2022-08-28T19:52:41.375Z,1.05
2022-08-28T19:55:08.758Z,1.02
2022-08-28T19:57:35.661Z,1.00
2022-08-28T20:00:04.553Z,0.90
2022-08-28T20:02:31.415Z,0.73
2022-08-28T20:04:58.801Z,0.98
2022-08-28T20:07:25.567Z,1.05
2022-08-28T20:09:52.272Z,0.70
2022-08-28T20:12:19.739Z,0.60
2022-08-28T20:14:46.729Z,0.68
2022-08-28T20:17:13.999Z,0.60
2022-08-28T20:19:41.181Z,0.68
2022-08-28T20:22:07.934Z,0.70
2022-08-28T20:24:34.888Z,1.08
2022-08-28T20:27:01.597Z,0.73
2022-08-28T20:29:28.549Z,0.70
2022-08-28T20:31:55.216Z,0.40
2022-08-28T20:34:22.113Z,0.60
2022-08-28T20:36:49.122Z,0.60
2022-08-28T20:39:16.370Z,0.90
2022-08-28T20:41:44.261Z,0.45
2022-08-28T20:44:13.395Z,0.75
2022-08-28T20:46:42.215Z,0.80
2022-08-28T20:49:14.283Z,0.70
2022-08-28T20:51:52.701Z,0.60
2022-08-28T20:54:21.768Z,0.80
2022-08-28T20:56:50.583Z,0.68
2022-08-28T20:59:18.379Z,0.65
2022-08-28T21:01:45.154Z,0.85
2022-08-28T21:04:11.824Z,0.70
2022-08-28T21:06:38.415Z,1.02
2022-08-28T21:09:05.096Z,0.90
2022-08-28T21:11:31.718Z,0.70
2022-08-28T21:13:58.421Z,0.68
2022-08-28T21:16:26.024Z,0.55
2022-08-28T21:19:14.458Z,0.50
2022-08-28T21:21:40.398Z,0.40
2022-08-28T21:24:09.537Z,0.57
2022-08-28T21:26:39.763Z,0.82
2022-08-28T21:29:10.643Z,0.50
2022-08-28T21:31:42.073Z,0.50
2022-08-28T21:34:09.662Z,0.70
2022-08-28T21:36:37.997Z,0.50
2022-08-28T21:39:05.772Z,0.70
2022-08-28T21:41:32.429Z,0.60
2022-08-28T21:43:59.164Z,0.80
2022-08-28T21:46:25.909Z,0.63
2022-08-28T21:48:53.333Z,0.55
2022-08-28T21:51:20.393Z,0.55
2022-08-28T21:53:47.415Z,0.50
2022-08-28T21:56:26.721Z,0.50
2022-08-28T21:58:55.552Z,0.65
2022-08-28T22:01:25.685Z,0.77
2022-08-28T22:03:54.344Z,0.82
2022-08-28T22:06:23.087Z,0.70
2022-08-28T22:08:51.304Z,0.85
2022-08-28T22:11:24.771Z,0.47
2022-08-28T22:13:53.136Z,0.50
2022-08-28T22:16:20.654Z,0.82
2022-08-28T22:18:47.382Z,0.60
2022-08-28T22:21:37.406Z,0.63
2022-08-28T22:24:04.710Z,1.00
2022-08-28T22:26:31.538Z,0.60
2022-08-28T22:28:58.236Z,0.68
2022-08-28T22:31:25.038Z,0.82
2022-08-28T22:33:52.095Z,0.75
2022-08-28T22:36:19.941Z,0.88
2022-08-28T22:38:53.047Z,0.52
2022-08-28T22:41:20.551Z,0.70
2022-08-28T22:43:49.726Z,0.88
2022-08-28T22:46:18.621Z,0.88
2022-08-28T22:48:45.886Z,0.52
2022-08-28T22:51:15.073Z,0.82
2022-08-28T22:53:43.212Z,0.55
2022-08-28T22:56:10.998Z,0.60
2022-08-28T22:58:38.469Z,0.70
2022-08-28T23:01:09.121Z,0.75
2022-08-28T23:03:35.951Z,0.80
2022-08-28T23:06:02.948Z,0.82
2022-08-28T23:08:33.744Z,0.50
2022-08-28T23:11:01.742Z,0.52
2022-08-28T23:13:29.907Z,0.70
2022-08-28T23:15:56.864Z,0.75
2022-08-28T23:18:23.564Z,0.70
2022-08-28T23:20:50.603Z,0.68
2022-08-28T23:23:19.242Z,0.50
2022-08-28T23:25:46.225Z,0.63
2022-08-28T23:28:13.214Z,0.70
2022-08-28T23:30:41.226Z,0.80
2022-08-28T23:33:18.570Z,0.60
2022-08-28T23:35:49.946Z,0.73
2022-08-28T23:38:16.561Z,0.88
2022-08-28T23:40:43.741Z,0.77
2022-08-28T23:43:10.947Z,0.95
2022-08-28T23:45:39.885Z,1.10
2022-08-28T23:48:06.649Z,1.27
2022-08-28T23:50:34.686Z,1.10
2022-08-28T23:53:02.346Z,0.60
2022-08-28T23:55:29.223Z,1.23
2022-08-28T23:57:56.314Z,0.80
